Kapaa, HI

1:38 PM HST on November 26, 2014 (GMT -1000)
WAILUA HOMESTEADS | Change Station
CLOSE
Current Station
Personal Weather Station
Location: Kapaa, HI
Elevation: 361 ft
Nearby Weather Stations
Active Advisory: High Surf Advisory

Elev 361 ft 22.07 °N, 159.36 °W | Updated 1 second ago

Overcast
Overcast
75.4 °F
Feels Like 77 °F
N
7.0
Wind Variable Wind from ENE
Gusts 14.0 mph

Today
High -- | Low -- °F
--% Chance of Precip.
Yesterday
High -- | Low -- °F
Precip. -- in
6:56 AM 5:52 PM
Waxing Crescent, 23% visible
Pressure 30.07 in
Visibility 10.0 miles
Clouds Few 3300 ft
Overcast 5000 ft
Heat Index 77 °F
Dew Point 63 °F
Humidity 66%
Rainfall 0.00 in
Snow Depth Not available.
UV 4.4 out of 12
Pollen Not available.
Air Quality Not available.
Flu Activity Not available.
METAR PHLI 262253Z 03019G25KT 10SM FEW033 OVC050 25/16 A3008 RMK AO2 SLP182 T02500161 $

More Conditions Fewer Conditions

Pressure 30.07 in
Visibility 10.0 miles
Clouds Few 3300 ft
Overcast 5000 ft
Heat Index 77 °F
Dew Point 63 °F
Humidity 66%
Rainfall 0.00 in
Snow Depth Not available.
UV 4.4 out of 12
Pollen Not available.
Air Quality Not available.
Flu Activity Not available.
METAR PHLI 262253Z 03019G25KT 10SM FEW033 OVC050 25/16 A3008 RMK AO2 SLP182 T02500161 $

More Conditions Fewer Conditions

10-Day Weather Forecast

Almanac

Astronomy

Nov. 26, 2014 Rise Set
Actual Time
Civil Twilight
Nautical Twilight
Astronomical Twilight
Moon
Length of Visible Light
Length of Day
Tomorrow will be .
, % of the Moon is Illuminated

Today's Extremes

State Highs State Lows

Community

WunderPhotos

Upload Photos

1,773,919 photos uploaded!

WunderBlogs® & News

Nearby

Air Quality

  Air Quality AQ Index Pollutant
Not available.

Snow Depth

Station Depth Elevation

Earthquake Activity

City Distance Mag. Time & Date
Minimum magnitude displayed is 2.5.

Coastal Water Temperatures

Place Temperature

Nearby Weather Stations